Terminal Aerodrome Forecast
Issued by NWS

Home | Current Version | Previous Version | Text Only | Print | Product List | Glossary On
Versions: 1 2 3 4 5 6 7 8 9 10 11 12 13 14 15 16 17 18 19 20 21 22 23 24
000
FTUS44 KLZK 041700
TAFHOT
TAF
KHOT 041739Z 0418/0518 04008G18KT 6SM -RA SCT008 OVC015
      TEMPO 0418/0422 2SM -RA BR OVC008
     FM042300 02010G20KT 5SM -RA BR BKN008 OVC015
      TEMPO 0500/0504 2SM -FZRAPL OVC005
     FM050400 02010G20KT 4SM -FZRAPL BR OVC008
     FM050600 02012G20KT 3SM -PLSN BR OVC005
     FM051000 02018G24KT 2SM -SN BR OVC005=

USA.gov is the U.S. government's official web portal to all federal, state and local government web resources and services.